Latest Weather Observations for Bathurst Airport

IDN60801

Issued at 10:02 am EDT Wednesday 18 January 2017 (issued every 30 minutes, with the page automatically refreshed every 10 minutes)

About weather observations | Map of weather stations | Latest weather observations for NSW | Other Formats
Station Details ID: 063291 Name: BATHURST AIRPORT AWS Lat: -33.41 Lon: 149.65 Height: 744.5 m
Data from the previous 72 hours. | See also: Recent months at Bathurst Airport
Date/Time
EDT
Temp
°C
App
Temp
°C
Dew
Point
°C
Rel
Hum
%
Delta-T
°C
Wind Press
QNH
hPa
Press
MSL
hPa
Rain since
9am
mm
Dir  Spd
km/h
Gust
km/h
Spd
kts
Gust
kts
18/10:00am 31.7 26.6 14.8 36 10.7 NW 35 50 19 27 1013.2 1009.3 0.0
18/09:36am 31.5 26.0 14.6 36 10.6 NW 37 56 20 30 1013.0 1009.2 0.0
18/09:30am 31.5 25.4 14.2 35 10.8 NW 39 56 21 30 1013.2 1009.3 0.0
18/09:03am 30.2 23.5 13.5 36 10.3 NNW 41 59 22 32 1013.2 1009.3 0.0
18/09:00am 30.5 24.3 13.7 35 10.4 NNW 39 50 21 27 1013.0 1009.2 0.0
18/08:30am 29.5 24.2 14.1 39 9.6 NW 35 50 19 27 1013.5 1009.6 0.0
18/08:00am 28.7 23.5 14.5 42 8.8 NW 35 46 19 25 1013.6 1009.7 0.0
18/07:30am 27.9 23.6 14.5 44 8.3 NW 30 37 16 20 1013.0 1009.2 0.0
18/07:00am 27.1 22.7 14.1 44 8.0 NW 30 37 16 20 1012.8 1009.0 0.0
18/06:30am 26.5 22.7 13.6 45 7.9 NNW 26 33 14 18 1012.4 1008.5 0.0
18/06:00am 26.7 22.4 13.1 43 8.2 NW 28 35 15 19 1012.0 1008.1 0.0
18/05:30am 27.6 22.9 13.2 41 8.8 NW 30 41 16 22 1011.6 1007.8 0.0
18/05:00am 28.1 23.0 13.2 39 9.1 NNW 32 43 17 23 1011.4 1007.5 0.0
18/04:30am 28.6 23.6 13.3 39 9.4 NW 32 48 17 26 1011.4 1007.5 0.0
18/04:00am 28.7 24.1 13.4 39 9.4 NW 30 39 16 21 1011.5 1007.7 0.0
18/03:30am 28.5 24.3 13.6 40 9.1 NNW 28 41 15 22 1011.4 1007.5 0.0
18/03:00am 26.8 24.6 14.5 46 7.6 NNW 19 20 10 11 1011.8 1007.9 0.0
18/02:30am 25.2 23.7 14.3 50 6.7 N 15 17 8 9 1011.9 1008.0 0.0
18/02:00am 25.7 23.4 14.2 49 7.1 N 19 20 10 11 1012.1 1008.2 0.0
18/01:30am 25.7 23.8 14.2 49 7.0 N 17 19 9 10 1012.3 1008.4 0.0
18/01:00am 24.7 23.4 14.8 54 6.1 N 15 17 8 9 1012.6 1008.7 0.0
18/12:30am 24.2 23.6 14.6 55 5.9 N 11 11 6 6 1012.9 1009.1 0.0
18/12:00am 25.3 25.1 14.7 51 6.5 NNW 9 9 5 5 1013.0 1009.2 0.0
 
Date/Time
EDT
Temp
°C
App
Temp
°C
Dew
Point
°C
Rel
Hum
%
Delta-T
°C
Wind Press
QNH
hPa
Press
MSL
hPa
Rain since
9am
mm
Dir  Spd
km/h
Gust
km/h
Spd
kts
Gust
kts
17/11:30pm 25.9 26.8 15.0 51 6.8 NW 4 7 2 4 1013.4 1009.5 0.0
17/11:00pm 25.5 24.9 14.6 51 6.7 N 11 13 6 7 1013.5 1009.6 0.0
17/10:30pm 26.2 25.9 14.3 48 7.3 NNE 9 11 5 6 1013.8 1009.9 0.0
17/10:00pm 27.3 27.5 14.7 46 7.8 NNE 7 9 4 5 1013.9 1010.0 0.0
17/09:30pm 27.9 27.8 14.9 45 8.1 N 9 11 5 6 1013.8 1009.9 0.0
17/09:00pm 28.8 27.7 14.2 40 9.1 NNW 13 15 7 8 1013.7 1009.8 0.0
17/08:30pm 29.4 28.6 14.0 39 9.5 NNW 11 13 6 7 1013.8 1009.9 0.0
17/08:00pm 30.7 29.3 13.5 35 10.6 NNW 13 17 7 9 1013.7 1009.8 0.0
17/07:30pm 32.9 29.6 14.0 32 11.9 NW 24 35 13 19 1013.6 1009.7 0.0
17/07:00pm 33.5 30.0 14.5 31 12.0 NW 26 33 14 18 1013.5 1009.6 0.0
17/06:30pm 33.9 30.0 13.4 29 12.8 NW 26 32 14 17 1013.2 1009.3 0.0
17/06:00pm 34.8 31.4 13.6 28 13.3 NW 24 35 13 19 1013.0 1009.2 0.0
17/05:30pm 34.1 30.6 13.5 28 12.9 NNW 24 35 13 19 1013.3 1009.4 0.0
17/05:00pm 35.7 33.5 14.9 29 13.3 NNW 20 32 11 17 1013.4 1009.5 0.0
17/04:30pm 35.6 32.4 13.1 25 14.1 WNW 22 35 12 19 1013.7 1009.8 0.0
17/04:00pm 36.5 33.4 14.5 27 14.1 NW 24 43 13 23 1014.1 1010.3 0.0
17/03:30pm 35.8 32.1 12.7 25 14.4 W 24 33 13 18 1014.3 1010.5 0.0
17/03:07pm 34.9 31.9 12.5 25 13.8 W 20 48 11 26 1014.7 1010.8 0.0
17/03:00pm 36.0 32.9 12.3 24 14.7 WNW 20 33 11 18 1014.7 1010.8 0.0
17/02:30pm 36.4 33.1 15.0 28 13.8 WNW 26 41 14 22 1015.2 1011.4 0.0
17/02:00pm 36.5 33.8 14.5 27 14.1 NW 22 33 12 18 1015.5 1011.7 0.0
17/01:30pm 35.6 32.2 13.7 27 13.8 WNW 24 33 13 18 1015.8 1012.0 0.0
17/01:00pm 35.1 30.6 12.7 26 13.9 NW 28 39 15 21 1016.3 1012.4 0.0
17/12:30pm 33.8 29.7 13.8 30 12.5 WNW 28 39 15 21 1016.9 1013.1 0.0
17/12:00pm 33.9 29.7 15.8 33 11.7 WNW 32 41 17 22 1017.2 1013.4 0.0
17/11:30am 33.2 29.9 16.1 35 11.1 NW 28 41 15 22 1017.5 1013.6 0.0
17/11:00am 31.9 27.7 15.8 38 10.3 NW 32 44 17 24 1017.8 1014.0 0.0
17/10:30am 31.4 28.5 16.2 40 9.8 NNW 26 35 14 19 1017.9 1014.1 0.0
17/10:00am 29.9 26.0 15.6 42 9.1 NNW 30 39 16 21 1018.1 1014.3 0.0
17/09:30am 29.1 26.8 15.6 44 8.6 NNW 22 32 12 17 1018.2 1014.4 0.0
17/09:00am 27.5 25.8 14.8 45 7.9 N 17 22 9 12 1018.6 1014.8 0.0
17/08:30am 24.0 25.1 14.7 56 5.7 WNW 2 7 1 4 1018.7 1014.9 0.0
17/08:00am 21.7 22.6 14.1 62 4.6 NNW 2 7 1 4 1018.7 1014.9 0.0
17/07:30am 19.3 20.8 14.6 74 2.8 CALM 0 6 0 3 1018.3 1014.5 0.0
17/07:00am 17.2 18.7 14.7 85 1.5 CALM 0 0 0 0 1018.1 1014.3 0.0
17/06:30am 15.7 16.9 13.7 88 1.2 CALM 0 0 0 0 1017.9 1014.1 0.0
17/06:00am 16.7 17.5 14.7 88 1.2 S 4 9 2 5 1017.6 1013.8 0.0
17/05:30am 16.7 16.9 14.7 88 1.2 SSW 7 7 4 4 1017.3 1013.5 0.0
17/05:00am 17.0 17.2 14.8 87 1.3 SSE 7 9 4 5 1016.9 1013.1 0.0
17/04:30am 17.6 18.8 13.9 79 2.2 CALM 0 0 0 0 1016.9 1013.1 0.0
17/04:00am 19.2 19.8 15.3 78 2.4 SE 6 7 3 4 1016.7 1012.9 0.0
17/03:30am 19.1 19.6 15.6 80 2.1 SW 7 7 4 4 1016.8 1013.0 0.0
17/03:00am 18.4 19.9 14.7 79 2.2 CALM 0 0 0 0 1016.9 1013.1 0.0
17/02:30am 18.0 18.2 13.1 73 2.9 NW 4 9 2 5 1016.9 1013.1 0.0
17/02:00am 20.7 20.0 14.4 67 3.8 SE 11 13 6 7 1016.9 1013.1 0.0
17/01:30am 20.8 20.6 14.7 68 3.7 SSE 9 11 5 6 1017.1 1013.3 0.0
17/01:00am 20.9 20.3 13.6 63 4.3 SSW 9 9 5 5 1017.5 1013.6 0.0
17/12:30am 21.5 20.6 12.6 57 5.2 SSW 9 11 5 6 1017.5 1013.6 0.0
17/12:00am 22.5 21.8 11.9 51 6.2 SSW 7 9 4 5 1017.6 1013.8 0.0
 
Date/Time
EDT
Temp
°C
App
Temp
°C
Dew
Point
°C
Rel
Hum
%
Delta-T
°C
Wind Press
QNH
hPa
Press
MSL
hPa
Rain since
9am
mm
Dir  Spd
km/h
Gust
km/h
Spd
kts
Gust
kts
16/11:30pm 23.0 21.7 11.1 47 6.9 NE 9 15 5 8 1017.6 1013.8 0.0
16/11:00pm 23.4 21.0 11.5 47 6.9 NE 15 19 8 10 1017.3 1013.5 0.0
16/10:30pm 24.6 21.2 10.5 41 8.1 NE 19 22 10 12 1017.3 1013.5 0.0
16/10:00pm 25.9 21.7 9.7 36 9.2 ENE 22 28 12 15 1017.1 1013.3 0.0
16/09:30pm 26.6 22.7 9.5 34 9.8 ENE 20 30 11 16 1016.7 1012.9 0.0
16/09:00pm 27.5 23.6 9.3 32 10.4 ENE 20 30 11 16 1016.4 1012.6 0.0
16/08:30pm 28.6 27.1 4.8 22 12.7 SW 2 11 1 6 1016.1 1012.2 0.0
16/08:00pm 30.1 28.1 2.4 17 14.3 WSW 2 9 1 5 1015.6 1011.8 0.0
16/07:30pm 32.4 29.3 1.5 14 15.9 WSW 7 15 4 8 1015.4 1011.6 0.0
16/07:00pm 32.9 28.6 0.9 13 16.4 SW 13 22 7 12 1015.1 1011.2 0.0
16/06:30pm 33.5 29.2 1.3 13 16.6 W 13 19 7 10 1014.9 1011.0 0.0
16/06:00pm 34.4 31.9 5.0 16 16.2 WNW 7 13 4 7 1014.7 1010.8 0.0
16/05:30pm 33.4 30.4 4.2 16 15.8 SSE 9 20 5 11 1014.7 1010.8 0.0
16/05:00pm 33.8 31.1 5.4 17 15.7 N 9 15 5 8 1014.8 1010.9 0.0
16/04:30pm 33.9 30.2 4.6 16 16.0 NW 13 20 7 11 1015.1 1011.2 0.0
16/04:00pm 32.8 29.3 5.4 18 15.1 SW 13 20 7 11 1015.3 1011.5 0.0
16/03:30pm 33.1 31.0 5.6 18 15.2 W 6 13 3 7 1015.4 1011.6 0.0
16/03:00pm 32.7 30.3 6.8 20 14.5 S 9 17 5 9 1015.8 1012.0 0.0
16/02:30pm 31.9 28.4 5.4 19 14.5 NW 13 20 7 11 1016.2 1012.3 0.0
16/02:00pm 30.5 27.1 5.7 21 13.5 S 13 22 7 12 1016.6 1012.8 0.0
16/01:30pm 31.2 27.1 4.1 18 14.5 WSW 15 22 8 12 1017.0 1013.2 0.0
16/01:00pm 30.2 26.5 6.1 22 13.2 WSW 15 24 8 13 1017.3 1013.5 0.0
16/12:30pm 29.0 27.2 8.1 27 11.8 S 7 13 4 7 1017.6 1013.8 0.0
16/12:00pm 29.3 26.8 8.4 27 11.8 NNW 11 24 6 13 1017.9 1014.1 0.0
16/11:30am 27.7 25.5 9.5 32 10.4 NNW 11 20 6 11 1018.1 1014.3 0.0
16/11:00am 27.2 26.1 12.0 38 9.0 NNE 9 15 5 8 1018.4 1014.6 0.0
16/10:30am 25.4 23.4 10.1 38 8.8 N 11 17 6 9 1018.7 1014.9 0.0
16/10:00am 23.3 22.9 12.3 50 6.5 WSW 6 9 3 5 1019.0 1015.2 0.0
16/09:30am 22.8 22.0 11.8 50 6.4 ENE 7 13 4 7 1019.2 1015.4 0.0
16/09:00am 21.6 21.1 12.5 56 5.3 NE 7 15 4 8 1019.5 1015.7 0.0
16/08:30am 20.0 19.1 12.5 62 4.4 NNE 9 13 5 7 1019.5 1015.7 0.0
16/08:00am 18.9 19.6 12.2 65 3.9 CALM 0 7 0 4 1019.5 1015.7 0.0
16/07:30am 17.0 18.2 13.7 81 1.9 CALM 0 0 0 0 1019.5 1015.7 0.0
16/07:00am 15.7 16.1 13.7 88 1.2 NE 4 7 2 4 1019.0 1015.2 0.0
16/06:30am 14.9 15.8 12.9 88 1.1 CALM 0 0 0 0 1018.7 1014.9 0.0
16/06:00am 14.1 13.5 11.6 85 1.4 NE 6 7 3 4 1018.4 1014.6 0.0
16/05:30am 16.3 14.6 12.5 78 2.2 ENE 13 17 7 9 1018.1 1014.3 0.0
16/05:00am 16.9 14.9 12.6 76 2.5 ENE 15 22 8 12 1017.9 1014.1 0.0
16/04:30am 16.3 14.1 12.1 76 2.4 ENE 15 20 8 11 1017.7 1013.9 0.0
16/04:00am 17.0 14.7 12.9 77 2.4 ENE 17 24 9 13 1017.5 1013.6 0.0
16/03:30am 17.1 15.5 14.0 82 1.8 ENE 15 20 8 11 1017.7 1013.9 0.0
16/03:00am 16.9 15.6 13.8 82 1.8 NE 13 15 7 8 1017.8 1014.0 0.0
16/02:30am 17.6 15.6 13.9 79 2.2 ENE 17 20 9 11 1017.8 1014.0 0.0
16/02:00am 17.8 15.7 13.7 77 2.4 ENE 17 24 9 13 1017.9 1014.1 0.0
16/01:30am 17.9 16.6 13.8 77 2.4 ENE 13 17 7 9 1018.1 1014.3 0.0
16/01:00am 18.7 17.0 14.8 78 2.3 ENE 17 22 9 12 1018.1 1014.3 0.0
16/12:30am 18.7 17.0 14.8 78 2.3 ENE 17 24 9 13 1018.0 1014.2 0.0
16/12:00am 19.0 16.9 14.7 76 2.6 ENE 19 30 10 16 1017.9 1014.1 0.0
 
Date/Time
EDT
Temp
°C
App
Temp
°C
Dew
Point
°C
Rel
Hum
%
Delta-T
°C
Wind Press
QNH
hPa
Press
MSL
hPa
Rain since
9am
mm
Dir  Spd
km/h
Gust
km/h
Spd
kts
Gust
kts
15/11:30pm 19.2 16.9 14.7 75 2.7 ENE 20 28 11 15 1017.8 1014.0 0.0
15/11:00pm 19.6 17.4 15.0 75 2.8 ENE 20 28 11 15 1017.6 1013.8 0.0
15/10:30pm 19.8 17.5 14.6 72 3.1 ENE 20 28 11 15 1017.5 1013.6 0.0
15/10:00pm 20.0 18.9 14.4 70 3.4 E 13 17 7 9 1017.2 1013.4 0.0
15/09:30pm 20.8 20.9 14.0 65 4.1 E 6 13 3 7 1017.0 1013.2 0.0
15/09:00pm 21.5 19.1 13.9 62 4.6 ENE 19 28 10 15 1016.7 1012.9 0.0
15/08:30pm 22.3 19.3 13.6 58 5.2 ENE 22 32 12 17 1016.2 1012.3 0.0
15/08:00pm 23.3 19.0 13.2 53 6.0 ENE 28 39 15 21 1015.6 1011.8 0.0
15/07:30pm 25.1 21.5 13.0 47 7.3 NE 24 32 13 17 1015.4 1011.6 0.0
15/07:00pm 26.5 22.9 12.9 43 8.2 ENE 24 30 13 16 1014.9 1011.0 0.0
15/06:30pm 28.3 25.2 12.2 37 9.7 NE 20 28 11 15 1014.7 1010.8 0.0
15/06:00pm 29.2 26.6 10.8 32 10.8 NNE 15 22 8 12 1014.4 1010.6 0.0
15/05:30pm 29.8 26.4 11.3 32 11.0 NE 20 35 11 19 1014.4 1010.6 0.0
15/05:00pm 30.7 27.8 11.1 30 11.7 E 17 24 9 13 1014.6 1010.7 0.0
15/04:30pm 29.6 27.1 9.7 29 11.5 NNE 13 19 7 10 1014.8 1010.9 0.0
15/04:00pm 28.7 26.0 8.9 29 11.3 NE 13 22 7 12 1014.9 1011.0 0.0
15/03:30pm 30.4 29.3 9.8 28 12.0 WNW 6 11 3 6 1015.2 1011.4 0.0
15/03:00pm 30.6 27.9 8.9 26 12.5 NNW 13 17 7 9 1015.4 1011.6 0.0
15/02:30pm 29.2 27.7 9.3 29 11.4 ESE 7 17 4 9 1015.7 1011.9 0.0
15/02:00pm 28.4 25.8 9.2 30 11.0 NE 13 22 7 12 1015.9 1012.1 0.0
15/01:30pm 28.4 26.3 9.6 31 10.8 E 11 19 6 10 1016.1 1012.2 0.0
15/01:00pm 27.6 25.4 9.4 32 10.4 SE 11 19 6 10 1016.4 1012.6 0.0
15/12:30pm 27.5 25.3 9.3 32 10.4 E 11 20 6 11 1016.5 1012.7 0.0
15/12:00pm 26.2 24.8 9.5 35 9.5 SE 7 17 4 9 1016.7 1012.9 0.0
15/11:30am 26.4 24.8 10.1 36 9.4 E 9 20 5 11 1016.7 1012.9 0.0
15/11:00am 25.4 23.0 10.1 38 8.8 ENE 13 24 7 13 1016.7 1012.9 0.0
15/10:30am 24.6 22.7 10.5 41 8.1 NNE 11 20 6 11 1016.6 1012.8 0.0

Other Formats:

Comma delimited format used in spreadsheet applications
http://www.bom.gov.au/fwo/IDN60801/IDN60801.94729.axf

JavaScript Object Notation format (JSON) in row-major order
http://www.bom.gov.au/fwo/IDN60801/IDN60801.94729.json